Accueil
METAR-TAF:

METAR-TAF

Aéroports :

Lusaka, Zambie

Aéroport international de Lusaka

latitude: 15-19-51S, longitude: 028-27-09E, altitude: 1152 m

Observation

Le bulletin a été fait il y a 4 heures et 36 minutes, à 23:00 UTC
Vent calme
Température 14°C
Humidité 88%
Pression 1021 hPa
Visibilité 10 km ou plus
pas de nuages en-dessous de 1500 mètres et pas de cumulonimbus.

METAR: FLKK 252300Z 00000KT CAVOK 14/12 Q1021

Heure: 05:36 (03:36 UTC)

Prévision

Le bulletin a été fait il y a 5 heures et 36 minutes, à 22:00 UTC
Prévision valable du 26 à 00 UTC au 27 à 06 UTC
Vent 10 kt de est/sud-est
Visibilité 10 km ou plus
pas de nuages en-dessous de 1500 mètres et pas de cumulonimbus.

TAF: FLKK 252200Z 2600/2706 11010KT CAVOK

Observations et prévisions météorologiques de plus de 4000 aéroports (messages METAR et TAF).

Les stations disponibles sont représentées par des disques jaunes et rouges sur la carte.

Passer la souris dessus pour voir le nom de la station.

Cliquer dessus pour voir les observations et prévisions météorologiques.

Pour changer de carte: cliquez sur les boutons verts avec une croix noire pour zoomer, sur le bouton vert avec un tiret pour effectuer un zoom arrière, ou sur les flèches vertes pour les cartes adjacentes.


METAR-TAF: